sensor_id;sensor_type;location;lat;lon;timestamp;P1;durP1;ratioP1;P2;durP2;ratioP2
17796;SDS011;55596;53.554;9.916;2023-04-03T00:00:31;6.63;;;2.50;;
17796;SDS011;55596;53.554;9.916;2023-04-03T00:03:00;8.97;;;2.87;;
17796;SDS011;55596;53.554;9.916;2023-04-03T00:05:27;12.80;;;3.03;;
17796;SDS011;55596;53.554;9.916;2023-04-03T00:07:55;7.87;;;2.10;;
17796;SDS011;55596;53.554;9.916;2023-04-03T00:10:22;10.33;;;2.83;;
17796;SDS011;55596;53.554;9.916;2023-04-03T00:12:49;9.43;;;2.90;;
17796;SDS011;55596;53.554;9.916;2023-04-03T00:15:16;7.43;;;2.63;;
17796;SDS011;55596;53.554;9.916;2023-04-03T00:17:44;7.53;;;2.60;;
17796;SDS011;55596;53.554;9.916;2023-04-03T00:20:12;9.90;;;2.30;;
17796;SDS011;55596;53.554;9.916;2023-04-03T00:22:39;5.93;;;2.33;;
17796;SDS011;55596;53.554;9.916;2023-04-03T00:25:07;4.83;;;2.40;;
17796;SDS011;55596;53.554;9.916;2023-04-03T00:27:35;6.63;;;2.57;;
17796;SDS011;55596;53.554;9.916;2023-04-03T00:30:03;6.37;;;2.20;;
17796;SDS011;55596;53.554;9.916;2023-04-03T00:32:30;8.67;;;2.63;;
17796;SDS011;55596;53.554;9.916;2023-04-03T00:34:58;7.10;;;2.57;;
17796;SDS011;55596;53.554;9.916;2023-04-03T00:37:26;13.50;;;2.70;;
17796;SDS011;55596;53.554;9.916;2023-04-03T00:39:53;9.47;;;2.60;;
17796;SDS011;55596;53.554;9.916;2023-04-03T00:42:21;7.23;;;2.90;;
17796;SDS011;55596;53.554;9.916;2023-04-03T00:47:33;6.40;;;2.57;;
17796;SDS011;55596;53.554;9.916;2023-04-03T00:50:01;11.40;;;2.83;;
17796;SDS011;55596;53.554;9.916;2023-04-03T00:52:30;4.97;;;2.70;;
17796;SDS011;55596;53.554;9.916;2023-04-03T00:54:58;9.93;;;2.53;;
17796;SDS011;55596;53.554;9.916;2023-04-03T00:57:26;11.70;;;3.20;;
17796;SDS011;55596;53.554;9.916;2023-04-03T00:59:55;8.07;;;3.07;;
17796;SDS011;55596;53.554;9.916;2023-04-03T01:02:24;9.27;;;2.80;;
17796;SDS011;55596;53.554;9.916;2023-04-03T01:04:52;8.53;;;2.80;;
17796;SDS011;55596;53.554;9.916;2023-04-03T01:07:19;8.20;;;2.97;;
17796;SDS011;55596;53.554;9.916;2023-04-03T01:09:51;13.40;;;2.73;;
17796;SDS011;55596;53.554;9.916;2023-04-03T01:12:20;11.80;;;3.23;;
17796;SDS011;55596;53.554;9.916;2023-04-03T01:14:48;9.93;;;2.93;;
17796;SDS011;55596;53.554;9.916;2023-04-03T01:17:29;6.93;;;2.83;;
17796;SDS011;55596;53.554;9.916;2023-04-03T01:22:39;8.33;;;3.10;;
17796;SDS011;55596;53.554;9.916;2023-04-03T01:25:09;9.93;;;3.37;;
17796;SDS011;55596;53.554;9.916;2023-04-03T01:27:36;6.17;;;2.47;;
17796;SDS011;55596;53.554;9.916;2023-04-03T01:30:04;8.77;;;2.67;;
17796;SDS011;55596;53.554;9.916;2023-04-03T01:32:33;8.43;;;3.00;;
17796;SDS011;55596;53.554;9.916;2023-04-03T01:35:00;8.07;;;2.57;;
17796;SDS011;55596;53.554;9.916;2023-04-03T01:37:27;11.60;;;2.83;;
17796;SDS011;55596;53.554;9.916;2023-04-03T01:39:54;7.40;;;2.53;;
17796;SDS011;55596;53.554;9.916;2023-04-03T01:42:22;10.20;;;3.10;;
17796;SDS011;55596;53.554;9.916;2023-04-03T01:44:49;7.63;;;2.77;;
17796;SDS011;55596;53.554;9.916;2023-04-03T01:47:16;9.10;;;2.67;;
17796;SDS011;55596;53.554;9.916;2023-04-03T01:49:44;6.53;;;2.73;;
17796;SDS011;55596;53.554;9.916;2023-04-03T01:52:11;7.47;;;2.93;;
17796;SDS011;55596;53.554;9.916;2023-04-03T01:54:39;10.97;;;2.97;;
17796;SDS011;55596;53.554;9.916;2023-04-03T01:57:06;5.67;;;2.20;;
17796;SDS011;55596;53.554;9.916;2023-04-03T01:59:33;8.70;;;2.57;;
17796;SDS011;55596;53.554;9.916;2023-04-03T02:02:00;8.23;;;3.27;;
17796;SDS011;55596;53.554;9.916;2023-04-03T02:04:27;9.73;;;2.60;;
17796;SDS011;55596;53.554;9.916;2023-04-03T02:06:56;9.87;;;3.13;;
17796;SDS011;55596;53.554;9.916;2023-04-03T02:09:23;4.90;;;2.53;;
17796;SDS011;55596;53.554;9.916;2023-04-03T02:11:51;13.13;;;2.40;;
17796;SDS011;55596;53.554;9.916;2023-04-03T02:14:18;8.40;;;2.47;;
17796;SDS011;55596;53.554;9.916;2023-04-03T02:16:46;6.97;;;2.43;;
17796;SDS011;55596;53.554;9.916;2023-04-03T02:19:14;8.70;;;3.13;;
17796;SDS011;55596;53.554;9.916;2023-04-03T02:21:41;11.07;;;3.20;;
17796;SDS011;55596;53.554;9.916;2023-04-03T02:24:09;7.87;;;2.50;;
17796;SDS011;55596;53.554;9.916;2023-04-03T02:26:37;7.77;;;2.60;;
17796;SDS011;55596;53.554;9.916;2023-04-03T02:29:04;7.57;;;2.90;;
17796;SDS011;55596;53.554;9.916;2023-04-03T02:31:31;9.57;;;2.63;;
17796;SDS011;55596;53.554;9.916;2023-04-03T02:33:58;7.30;;;3.30;;
17796;SDS011;55596;53.554;9.916;2023-04-03T02:36:25;6.90;;;2.70;;
17796;SDS011;55596;53.554;9.916;2023-04-03T02:38:52;9.90;;;3.07;;
17796;SDS011;55596;53.554;9.916;2023-04-03T02:41:21;9.93;;;3.23;;
17796;SDS011;55596;53.554;9.916;2023-04-03T02:43:50;8.90;;;3.00;;
17796;SDS011;55596;53.554;9.916;2023-04-03T02:46:17;8.87;;;3.17;;
17796;SDS011;55596;53.554;9.916;2023-04-03T02:48:44;6.77;;;3.37;;
17796;SDS011;55596;53.554;9.916;2023-04-03T02:51:12;12.63;;;3.43;;
17796;SDS011;55596;53.554;9.916;2023-04-03T02:53:39;6.57;;;2.83;;
17796;SDS011;55596;53.554;9.916;2023-04-03T02:56:06;11.10;;;3.47;;
17796;SDS011;55596;53.554;9.916;2023-04-03T02:58:35;9.70;;;3.27;;
17796;SDS011;55596;53.554;9.916;2023-04-03T03:01:02;9.40;;;3.27;;
17796;SDS011;55596;53.554;9.916;2023-04-03T03:03:29;9.30;;;2.97;;
17796;SDS011;55596;53.554;9.916;2023-04-03T03:06:06;8.50;;;3.20;;
17796;SDS011;55596;53.554;9.916;2023-04-03T03:08:34;7.90;;;2.87;;
17796;SDS011;55596;53.554;9.916;2023-04-03T03:11:01;11.17;;;3.07;;
17796;SDS011;55596;53.554;9.916;2023-04-03T03:13:29;8.27;;;2.93;;
17796;SDS011;55596;53.554;9.916;2023-04-03T03:15:58;9.40;;;2.60;;
17796;SDS011;55596;53.554;9.916;2023-04-03T03:18:25;7.37;;;2.83;;
17796;SDS011;55596;53.554;9.916;2023-04-03T03:20:52;9.40;;;2.83;;
17796;SDS011;55596;53.554;9.916;2023-04-03T03:23:20;8.87;;;3.17;;
17796;SDS011;55596;53.554;9.916;2023-04-03T03:25:47;9.57;;;3.00;;
17796;SDS011;55596;53.554;9.916;2023-04-03T03:28:14;10.40;;;3.47;;
17796;SDS011;55596;53.554;9.916;2023-04-03T03:30:42;9.67;;;2.93;;
17796;SDS011;55596;53.554;9.916;2023-04-03T03:33:10;15.90;;;3.00;;
17796;SDS011;55596;53.554;9.916;2023-04-03T03:35:37;13.70;;;3.00;;
17796;SDS011;55596;53.554;9.916;2023-04-03T03:38:05;12.07;;;3.10;;
17796;SDS011;55596;53.554;9.916;2023-04-03T03:40:32;9.37;;;3.40;;
17796;SDS011;55596;53.554;9.916;2023-04-03T03:42:59;6.60;;;2.87;;
17796;SDS011;55596;53.554;9.916;2023-04-03T03:45:26;8.57;;;2.97;;
17796;SDS011;55596;53.554;9.916;2023-04-03T03:47:53;9.53;;;3.43;;
17796;SDS011;55596;53.554;9.916;2023-04-03T03:50:22;7.47;;;2.77;;
17796;SDS011;55596;53.554;9.916;2023-04-03T03:52:49;13.30;;;3.37;;
17796;SDS011;55596;53.554;9.916;2023-04-03T03:55:16;10.17;;;3.30;;
17796;SDS011;55596;53.554;9.916;2023-04-03T03:57:44;6.37;;;2.97;;
17796;SDS011;55596;53.554;9.916;2023-04-03T04:00:11;10.97;;;3.20;;
17796;SDS011;55596;53.554;9.916;2023-04-03T04:02:38;11.33;;;3.40;;
17796;SDS011;55596;53.554;9.916;2023-04-03T04:05:06;12.17;;;3.33;;
17796;SDS011;55596;53.554;9.916;2023-04-03T04:07:34;9.20;;;3.10;;
17796;SDS011;55596;53.554;9.916;2023-04-03T04:10:02;16.20;;;3.97;;
17796;SDS011;55596;53.554;9.916;2023-04-03T04:12:29;6.60;;;3.20;;
17796;SDS011;55596;53.554;9.916;2023-04-03T04:14:56;12.40;;;3.70;;
17796;SDS011;55596;53.554;9.916;2023-04-03T04:17:23;11.73;;;3.77;;
17796;SDS011;55596;53.554;9.916;2023-04-03T04:19:51;11.63;;;3.87;;
17796;SDS011;55596;53.554;9.916;2023-04-03T04:22:18;13.73;;;3.40;;
17796;SDS011;55596;53.554;9.916;2023-04-03T04:24:46;16.40;;;3.60;;
17796;SDS011;55596;53.554;9.916;2023-04-03T04:27:13;8.73;;;3.27;;
17796;SDS011;55596;53.554;9.916;2023-04-03T04:29:41;11.17;;;3.87;;
17796;SDS011;55596;53.554;9.916;2023-04-03T04:32:08;7.60;;;3.17;;
17796;SDS011;55596;53.554;9.916;2023-04-03T04:34:36;9.43;;;3.17;;
17796;SDS011;55596;53.554;9.916;2023-04-03T04:37:03;13.07;;;3.93;;
17796;SDS011;55596;53.554;9.916;2023-04-03T04:39:30;9.93;;;3.10;;
17796;SDS011;55596;53.554;9.916;2023-04-03T04:41:58;8.50;;;3.77;;
17796;SDS011;55596;53.554;9.916;2023-04-03T04:44:26;14.97;;;3.50;;
17796;SDS011;55596;53.554;9.916;2023-04-03T04:46:53;8.03;;;3.80;;
17796;SDS011;55596;53.554;9.916;2023-04-03T04:49:20;8.77;;;3.13;;
17796;SDS011;55596;53.554;9.916;2023-04-03T04:51:47;10.47;;;3.80;;
17796;SDS011;55596;53.554;9.916;2023-04-03T04:54:15;15.40;;;3.40;;
17796;SDS011;55596;53.554;9.916;2023-04-03T04:56:42;10.63;;;3.80;;
17796;SDS011;55596;53.554;9.916;2023-04-03T04:59:10;14.90;;;4.13;;
17796;SDS011;55596;53.554;9.916;2023-04-03T05:01:38;9.57;;;3.77;;
17796;SDS011;55596;53.554;9.916;2023-04-03T05:04:05;14.13;;;3.40;;
17796;SDS011;55596;53.554;9.916;2023-04-03T05:06:32;13.80;;;4.37;;
17796;SDS011;55596;53.554;9.916;2023-04-03T05:09:00;8.43;;;4.03;;
17796;SDS011;55596;53.554;9.916;2023-04-03T05:11:27;10.90;;;3.33;;
17796;SDS011;55596;53.554;9.916;2023-04-03T05:13:54;16.43;;;3.90;;
17796;SDS011;55596;53.554;9.916;2023-04-03T05:16:23;13.67;;;4.00;;
17796;SDS011;55596;53.554;9.916;2023-04-03T05:18:50;12.83;;;4.23;;
17796;SDS011;55596;53.554;9.916;2023-04-03T05:21:17;11.70;;;4.17;;
17796;SDS011;55596;53.554;9.916;2023-04-03T05:23:46;16.47;;;4.53;;
17796;SDS011;55596;53.554;9.916;2023-04-03T05:26:14;9.67;;;3.80;;
17796;SDS011;55596;53.554;9.916;2023-04-03T05:28:41;16.07;;;3.97;;
17796;SDS011;55596;53.554;9.916;2023-04-03T05:31:08;11.93;;;3.90;;
17796;SDS011;55596;53.554;9.916;2023-04-03T05:33:37;13.30;;;3.70;;
17796;SDS011;55596;53.554;9.916;2023-04-03T05:36:04;9.13;;;3.60;;
17796;SDS011;55596;53.554;9.916;2023-04-03T05:38:32;10.60;;;4.00;;
17796;SDS011;55596;53.554;9.916;2023-04-03T05:40:59;13.23;;;3.80;;
17796;SDS011;55596;53.554;9.916;2023-04-03T05:43:26;15.53;;;3.90;;
17796;SDS011;55596;53.554;9.916;2023-04-03T05:45:54;11.83;;;3.73;;
17796;SDS011;55596;53.554;9.916;2023-04-03T05:48:21;9.60;;;3.40;;
17796;SDS011;55596;53.554;9.916;2023-04-03T05:50:49;11.87;;;4.00;;
17796;SDS011;55596;53.554;9.916;2023-04-03T05:53:17;7.27;;;4.00;;
17796;SDS011;55596;53.554;9.916;2023-04-03T05:55:46;10.00;;;3.90;;
17796;SDS011;55596;53.554;9.916;2023-04-03T05:58:13;10.63;;;4.20;;
17796;SDS011;55596;53.554;9.916;2023-04-03T06:00:40;8.23;;;4.10;;
17796;SDS011;55596;53.554;9.916;2023-04-03T06:03:07;9.50;;;3.50;;
17796;SDS011;55596;53.554;9.916;2023-04-03T06:05:35;7.63;;;3.77;;
17796;SDS011;55596;53.554;9.916;2023-04-03T06:08:03;10.17;;;3.97;;
17796;SDS011;55596;53.554;9.916;2023-04-03T06:10:31;8.60;;;3.73;;
17796;SDS011;55596;53.554;9.916;2023-04-03T06:12:58;7.60;;;3.80;;
17796;SDS011;55596;53.554;9.916;2023-04-03T06:15:25;11.07;;;3.80;;
17796;SDS011;55596;53.554;9.916;2023-04-03T06:17:53;7.73;;;2.90;;
17796;SDS011;55596;53.554;9.916;2023-04-03T06:20:21;8.63;;;3.20;;
17796;SDS011;55596;53.554;9.916;2023-04-03T06:22:48;7.30;;;3.43;;
17796;SDS011;55596;53.554;9.916;2023-04-03T06:25:17;10.13;;;3.17;;
17796;SDS011;55596;53.554;9.916;2023-04-03T06:27:44;11.27;;;3.70;;
17796;SDS011;55596;53.554;9.916;2023-04-03T06:30:12;8.60;;;3.20;;
17796;SDS011;55596;53.554;9.916;2023-04-03T06:32:39;9.57;;;2.70;;
17796;SDS011;55596;53.554;9.916;2023-04-03T06:35:08;6.97;;;2.90;;
17796;SDS011;55596;53.554;9.916;2023-04-03T06:37:35;11.97;;;3.10;;
17796;SDS011;55596;53.554;9.916;2023-04-03T06:40:03;6.33;;;2.80;;
17796;SDS011;55596;53.554;9.916;2023-04-03T06:42:32;7.13;;;2.40;;
17796;SDS011;55596;53.554;9.916;2023-04-03T06:44:59;7.63;;;2.23;;
17796;SDS011;55596;53.554;9.916;2023-04-03T06:47:27;4.90;;;2.47;;
17796;SDS011;55596;53.554;9.916;2023-04-03T06:49:54;8.77;;;2.50;;
17796;SDS011;55596;53.554;9.916;2023-04-03T06:52:21;6.50;;;2.60;;
17796;SDS011;55596;53.554;9.916;2023-04-03T06:54:48;6.07;;;2.20;;
17796;SDS011;55596;53.554;9.916;2023-04-03T06:57:21;9.70;;;2.00;;
17796;SDS011;55596;53.554;9.916;2023-04-03T06:59:50;5.33;;;2.50;;
17796;SDS011;55596;53.554;9.916;2023-04-03T07:02:18;10.63;;;2.33;;
17796;SDS011;55596;53.554;9.916;2023-04-03T07:04:45;9.93;;;3.07;;
17796;SDS011;55596;53.554;9.916;2023-04-03T07:07:13;8.00;;;2.10;;
17796;SDS011;55596;53.554;9.916;2023-04-03T07:09:40;6.00;;;2.20;;
17796;SDS011;55596;53.554;9.916;2023-04-03T07:12:08;7.17;;;2.07;;
17796;SDS011;55596;53.554;9.916;2023-04-03T07:14:35;4.37;;;1.93;;
17796;SDS011;55596;53.554;9.916;2023-04-03T07:17:04;5.77;;;1.80;;
17796;SDS011;55596;53.554;9.916;2023-04-03T07:19:32;4.67;;;2.30;;
17796;SDS011;55596;53.554;9.916;2023-04-03T07:21:59;9.10;;;2.77;;
17796;SDS011;55596;53.554;9.916;2023-04-03T07:24:27;3.50;;;1.60;;
17796;SDS011;55596;53.554;9.916;2023-04-03T07:26:54;4.97;;;1.50;;
17796;SDS011;55596;53.554;9.916;2023-04-03T07:29:21;7.13;;;1.50;;
17796;SDS011;55596;53.554;9.916;2023-04-03T07:31:49;5.77;;;1.50;;
17796;SDS011;55596;53.554;9.916;2023-04-03T07:34:17;5.60;;;1.70;;
17796;SDS011;55596;53.554;9.916;2023-04-03T07:36:47;8.43;;;1.80;;
17796;SDS011;55596;53.554;9.916;2023-04-03T07:39:15;7.37;;;1.47;;
17796;SDS011;55596;53.554;9.916;2023-04-03T07:41:42;4.87;;;1.60;;
17796;SDS011;55596;53.554;9.916;2023-04-03T07:44:09;5.13;;;1.63;;
17796;SDS011;55596;53.554;9.916;2023-04-03T07:46:36;4.00;;;1.17;;
17796;SDS011;55596;53.554;9.916;2023-04-03T07:49:04;5.50;;;1.43;;
17796;SDS011;55596;53.554;9.916;2023-04-03T07:51:32;3.87;;;1.27;;
17796;SDS011;55596;53.554;9.916;2023-04-03T07:54:00;4.17;;;1.30;;
17796;SDS011;55596;53.554;9.916;2023-04-03T07:56:27;4.07;;;1.10;;
17796;SDS011;55596;53.554;9.916;2023-04-03T07:58:54;3.77;;;1.00;;
17796;SDS011;55596;53.554;9.916;2023-04-03T08:01:22;3.27;;;1.00;;
17796;SDS011;55596;53.554;9.916;2023-04-03T08:03:49;2.73;;;1.00;;
17796;SDS011;55596;53.554;9.916;2023-04-03T08:06:16;5.13;;;0.97;;
17796;SDS011;55596;53.554;9.916;2023-04-03T08:08:45;6.30;;;1.50;;
17796;SDS011;55596;53.554;9.916;2023-04-03T08:11:12;8.27;;;1.17;;
17796;SDS011;55596;53.554;9.916;2023-04-03T08:13:39;5.27;;;1.10;;
17796;SDS011;55596;53.554;9.916;2023-04-03T08:16:08;3.90;;;1.37;;
17796;SDS011;55596;53.554;9.916;2023-04-03T08:18:36;2.03;;;1.10;;
17796;SDS011;55596;53.554;9.916;2023-04-03T08:21:07;2.83;;;0.93;;
17796;SDS011;55596;53.554;9.916;2023-04-03T08:23:34;3.33;;;1.17;;
17796;SDS011;55596;53.554;9.916;2023-04-03T08:26:07;4.50;;;1.43;;
17796;SDS011;55596;53.554;9.916;2023-04-03T08:28:35;3.33;;;1.00;;
17796;SDS011;55596;53.554;9.916;2023-04-03T08:31:03;5.13;;;1.40;;
17796;SDS011;55596;53.554;9.916;2023-04-03T08:33:32;3.90;;;1.03;;
17796;SDS011;55596;53.554;9.916;2023-04-03T08:36:00;8.03;;;1.60;;
17796;SDS011;55596;53.554;9.916;2023-04-03T08:38:27;4.17;;;1.23;;
17796;SDS011;55596;53.554;9.916;2023-04-03T08:41:04;4.07;;;1.00;;
17796;SDS011;55596;53.554;9.916;2023-04-03T08:43:41;4.23;;;1.97;;
17796;SDS011;55596;53.554;9.916;2023-04-03T08:46:15;5.13;;;1.20;;
17796;SDS011;55596;53.554;9.916;2023-04-03T08:48:43;4.57;;;1.47;;
17796;SDS011;55596;53.554;9.916;2023-04-03T08:51:11;3.97;;;1.43;;
17796;SDS011;55596;53.554;9.916;2023-04-03T08:53:41;3.97;;;1.07;;
17796;SDS011;55596;53.554;9.916;2023-04-03T08:56:09;3.57;;;1.10;;
17796;SDS011;55596;53.554;9.916;2023-04-03T08:58:40;3.20;;;1.10;;
17796;SDS011;55596;53.554;9.916;2023-04-03T09:01:14;3.43;;;0.90;;
17796;SDS011;55596;53.554;9.916;2023-04-03T09:03:43;4.70;;;1.33;;
17796;SDS011;55596;53.554;9.916;2023-04-03T09:06:11;4.00;;;1.13;;
17796;SDS011;55596;53.554;9.916;2023-04-03T09:08:40;7.07;;;1.07;;
17796;SDS011;55596;53.554;9.916;2023-04-03T09:11:12;3.20;;;1.37;;
17796;SDS011;55596;53.554;9.916;2023-04-03T09:13:43;4.23;;;1.40;;
17796;SDS011;55596;53.554;9.916;2023-04-03T09:16:17;4.30;;;1.60;;
17796;SDS011;55596;53.554;9.916;2023-04-03T09:18:48;2.20;;;0.97;;
17796;SDS011;55596;53.554;9.916;2023-04-03T09:21:21;2.93;;;1.50;;
17796;SDS011;55596;53.554;9.916;2023-04-03T09:23:50;2.53;;;1.17;;
17796;SDS011;55596;53.554;9.916;2023-04-03T09:26:18;4.47;;;1.27;;
17796;SDS011;55596;53.554;9.916;2023-04-03T09:28:46;3.77;;;1.10;;
17796;SDS011;55596;53.554;9.916;2023-04-03T09:31:18;4.40;;;1.10;;
17796;SDS011;55596;53.554;9.916;2023-04-03T09:33:46;2.63;;;1.00;;
17796;SDS011;55596;53.554;9.916;2023-04-03T09:36:14;4.57;;;1.03;;
17796;SDS011;55596;53.554;9.916;2023-04-03T09:39:02;2.27;;;1.00;;
17796;SDS011;55596;53.554;9.916;2023-04-03T09:41:30;6.03;;;1.20;;
17796;SDS011;55596;53.554;9.916;2023-04-03T09:43:58;4.47;;;1.40;;
17796;SDS011;55596;53.554;9.916;2023-04-03T09:46:30;3.97;;;1.17;;
17796;SDS011;55596;53.554;9.916;2023-04-03T09:48:58;5.23;;;1.20;;
17796;SDS011;55596;53.554;9.916;2023-04-03T09:51:26;5.40;;;0.63;;
17796;SDS011;55596;53.554;9.916;2023-04-03T09:53:54;4.60;;;1.03;;
17796;SDS011;55596;53.554;9.916;2023-04-03T09:56:23;4.20;;;1.20;;
17796;SDS011;55596;53.554;9.916;2023-04-03T09:58:51;2.97;;;1.20;;
17796;SDS011;55596;53.554;9.916;2023-04-03T10:01:21;2.73;;;0.97;;
17796;SDS011;55596;53.554;9.916;2023-04-03T10:04:02;4.03;;;1.00;;
17796;SDS011;55596;53.554;9.916;2023-04-03T10:06:31;1.70;;;0.90;;
17796;SDS011;55596;53.554;9.916;2023-04-03T10:09:00;5.10;;;1.13;;
17796;SDS011;55596;53.554;9.916;2023-04-03T10:11:29;4.30;;;0.87;;
17796;SDS011;55596;53.554;9.916;2023-04-03T10:13:57;3.08;;;1.00;;
17796;SDS011;55596;53.554;9.916;2023-04-03T10:16:26;6.10;;;1.40;;
17796;SDS011;55596;53.554;9.916;2023-04-03T10:18:58;3.47;;;0.90;;
17796;SDS011;55596;53.554;9.916;2023-04-03T10:21:31;1.90;;;0.80;;
17796;SDS011;55596;53.554;9.916;2023-04-03T10:24:02;3.80;;;1.10;;
17796;SDS011;55596;53.554;9.916;2023-04-03T10:26:36;5.40;;;1.03;;
17796;SDS011;55596;53.554;9.916;2023-04-03T10:29:09;3.77;;;1.27;;
17796;SDS011;55596;53.554;9.916;2023-04-03T10:31:41;5.50;;;1.03;;
17796;SDS011;55596;53.554;9.916;2023-04-03T10:34:16;2.03;;;1.17;;
17796;SDS011;55596;53.554;9.916;2023-04-03T10:36:48;2.60;;;0.90;;
17796;SDS011;55596;53.554;9.916;2023-04-03T10:39:24;3.60;;;1.00;;
17796;SDS011;55596;53.554;9.916;2023-04-03T10:42:01;1.90;;;0.90;;
17796;SDS011;55596;53.554;9.916;2023-04-03T10:44:31;4.00;;;0.80;;
17796;SDS011;55596;53.554;9.916;2023-04-03T10:47:02;3.67;;;0.80;;
17796;SDS011;55596;53.554;9.916;2023-04-03T10:49:38;3.53;;;0.80;;
17796;SDS011;55596;53.554;9.916;2023-04-03T10:52:09;4.27;;;0.80;;
17796;SDS011;55596;53.554;9.916;2023-04-03T10:54:39;1.57;;;0.70;;
17796;SDS011;55596;53.554;9.916;2023-04-03T10:57:08;2.33;;;0.77;;
17796;SDS011;55596;53.554;9.916;2023-04-03T10:59:37;5.67;;;0.80;;
17796;SDS011;55596;53.554;9.916;2023-04-03T11:02:06;2.77;;;1.10;;
17796;SDS011;55596;53.554;9.916;2023-04-03T11:04:35;5.10;;;1.10;;
17796;SDS011;55596;53.554;9.916;2023-04-03T11:07:07;3.00;;;1.10;;
17796;SDS011;55596;53.554;9.916;2023-04-03T11:09:35;3.73;;;1.10;;
17796;SDS011;55596;53.554;9.916;2023-04-03T11:12:06;6.10;;;1.17;;
17796;SDS011;55596;53.554;9.916;2023-04-03T11:14:36;2.77;;;0.90;;
17796;SDS011;55596;53.554;9.916;2023-04-03T11:17:06;3.13;;;0.90;;
17796;SDS011;55596;53.554;9.916;2023-04-03T11:19:38;2.10;;;1.07;;
17796;SDS011;55596;53.554;9.916;2023-04-03T11:22:10;3.27;;;0.87;;
17796;SDS011;55596;53.554;9.916;2023-04-03T11:24:41;4.50;;;1.30;;
17796;SDS011;55596;53.554;9.916;2023-04-03T11:27:11;3.30;;;0.90;;
17796;SDS011;55596;53.554;9.916;2023-04-03T11:29:42;3.60;;;1.00;;
17796;SDS011;55596;53.554;9.916;2023-04-03T11:32:25;4.50;;;1.10;;
17796;SDS011;55596;53.554;9.916;2023-04-03T11:34:56;3.50;;;1.20;;
17796;SDS011;55596;53.554;9.916;2023-04-03T11:37:27;3.03;;;1.20;;
17796;SDS011;55596;53.554;9.916;2023-04-03T11:39:56;3.50;;;1.10;;
17796;SDS011;55596;53.554;9.916;2023-04-03T11:42:25;3.97;;;0.90;;
17796;SDS011;55596;53.554;9.916;2023-04-03T11:47:46;2.87;;;1.20;;
17796;SDS011;55596;53.554;9.916;2023-04-03T11:53:01;7.23;;;1.17;;
17796;SDS011;55596;53.554;9.916;2023-04-03T11:58:20;1.50;;;0.90;;
17796;SDS011;55596;53.554;9.916;2023-04-03T12:00:54;3.33;;;0.97;;
17796;SDS011;55596;53.554;9.916;2023-04-03T12:09:13;2.85;;;1.10;;
17796;SDS011;55596;53.554;9.916;2023-04-03T12:11:49;3.40;;;1.25;;
17796;SDS011;55596;53.554;9.916;2023-04-03T12:14:16;3.33;;;1.10;;
17796;SDS011;55596;53.554;9.916;2023-04-03T12:16:45;2.70;;;1.30;;
17796;SDS011;55596;53.554;9.916;2023-04-03T12:19:32;1.80;;;0.95;;
17796;SDS011;55596;53.554;9.916;2023-04-03T12:22:05;2.55;;;1.08;;
17796;SDS011;55596;53.554;9.916;2023-04-03T12:24:35;4.07;;;1.00;;
17796;SDS011;55596;53.554;9.916;2023-04-03T12:29:58;2.67;;;1.10;;
17796;SDS011;55596;53.554;9.916;2023-04-03T12:32:34;2.13;;;0.93;;
17796;SDS011;55596;53.554;9.916;2023-04-03T12:35:09;3.00;;;1.35;;
17796;SDS011;55596;53.554;9.916;2023-04-03T12:37:49;5.00;;;1.27;;
17796;SDS011;55596;53.554;9.916;2023-04-03T12:40:23;3.08;;;1.30;;
17796;SDS011;55596;53.554;9.916;2023-04-03T12:42:58;2.97;;;1.30;;
17796;SDS011;55596;53.554;9.916;2023-04-03T12:45:29;6.38;;;1.85;;
17796;SDS011;55596;53.554;9.916;2023-04-03T12:48:08;4.28;;;1.40;;
17796;SDS011;55596;53.554;9.916;2023-04-03T12:50:39;6.40;;;1.20;;
17796;SDS011;55596;53.554;9.916;2023-04-03T12:53:11;5.15;;;1.65;;
17796;SDS011;55596;53.554;9.916;2023-04-03T12:55:40;2.97;;;1.10;;
17796;SDS011;55596;53.554;9.916;2023-04-03T12:58:14;3.15;;;1.38;;
17796;SDS011;55596;53.554;9.916;2023-04-03T13:00:42;8.00;;;1.30;;
17796;SDS011;55596;53.554;9.916;2023-04-03T13:03:19;2.72;;;1.10;;
17796;SDS011;55596;53.554;9.916;2023-04-03T13:05:48;4.93;;;1.17;;
17796;SDS011;55596;53.554;9.916;2023-04-03T13:08:15;4.40;;;1.30;;
17796;SDS011;55596;53.554;9.916;2023-04-03T13:10:51;3.80;;;1.20;;
17796;SDS011;55596;53.554;9.916;2023-04-03T13:13:20;3.13;;;1.20;;
17796;SDS011;55596;53.554;9.916;2023-04-03T13:15:48;2.87;;;1.20;;
17796;SDS011;55596;53.554;9.916;2023-04-03T13:18:26;3.70;;;1.13;;
17796;SDS011;55596;53.554;9.916;2023-04-03T13:20:54;2.25;;;1.05;;
17796;SDS011;55596;53.554;9.916;2023-04-03T13:23:23;1.73;;;1.10;;
17796;SDS011;55596;53.554;9.916;2023-04-03T13:25:52;2.70;;;0.88;;
17796;SDS011;55596;53.554;9.916;2023-04-03T13:28:20;3.35;;;1.48;;
17796;SDS011;55596;53.554;9.916;2023-04-03T13:30:55;2.92;;;1.20;;
17796;SDS011;55596;53.554;9.916;2023-04-03T13:33:23;4.45;;;1.45;;
17796;SDS011;55596;53.554;9.916;2023-04-03T13:35:54;4.13;;;1.30;;
17796;SDS011;55596;53.554;9.916;2023-04-03T13:38:23;2.42;;;1.20;;
17796;SDS011;55596;53.554;9.916;2023-04-03T13:40:53;3.38;;;1.10;;
17796;SDS011;55596;53.554;9.916;2023-04-03T13:43:22;5.13;;;1.35;;
17796;SDS011;55596;53.554;9.916;2023-04-03T13:45:54;3.17;;;1.10;;
17796;SDS011;55596;53.554;9.916;2023-04-03T13:48:22;2.47;;;1.10;;
17796;SDS011;55596;53.554;9.916;2023-04-03T13:50:53;4.10;;;1.17;;
17796;SDS011;55596;53.554;9.916;2023-04-03T13:53:21;1.75;;;1.05;;
17796;SDS011;55596;53.554;9.916;2023-04-03T13:55:55;2.47;;;1.20;;
17796;SDS011;55596;53.554;9.916;2023-04-03T13:58:23;2.75;;;1.20;;
17796;SDS011;55596;53.554;9.916;2023-04-03T14:00:51;1.55;;;0.90;;
17796;SDS011;55596;53.554;9.916;2023-04-03T14:03:20;4.85;;;1.15;;
17796;SDS011;55596;53.554;9.916;2023-04-03T14:05:48;3.72;;;1.05;;
17796;SDS011;55596;53.554;9.916;2023-04-03T14:08:15;2.45;;;1.27;;
17796;SDS011;55596;53.554;9.916;2023-04-03T14:10:42;3.83;;;1.20;;
17796;SDS011;55596;53.554;9.916;2023-04-03T14:13:12;2.55;;;1.10;;
17796;SDS011;55596;53.554;9.916;2023-04-03T14:15:40;3.63;;;1.10;;
17796;SDS011;55596;53.554;9.916;2023-04-03T14:18:09;3.17;;;1.10;;
17796;SDS011;55596;53.554;9.916;2023-04-03T14:20:36;4.43;;;1.40;;
17796;SDS011;55596;53.554;9.916;2023-04-03T14:23:04;4.85;;;1.45;;
17796;SDS011;55596;53.554;9.916;2023-04-03T14:25:31;3.40;;;1.33;;
17796;SDS011;55596;53.554;9.916;2023-04-03T14:27:59;5.15;;;1.10;;
17796;SDS011;55596;53.554;9.916;2023-04-03T14:30:28;2.70;;;1.05;;
17796;SDS011;55596;53.554;9.916;2023-04-03T14:32:56;3.78;;;1.02;;
17796;SDS011;55596;53.554;9.916;2023-04-03T14:35:23;1.85;;;0.95;;
17796;SDS011;55596;53.554;9.916;2023-04-03T14:37:51;2.30;;;1.17;;
17796;SDS011;55596;53.554;9.916;2023-04-03T14:40:20;2.00;;;1.17;;
17796;SDS011;55596;53.554;9.916;2023-04-03T14:42:47;2.97;;;1.10;;
17796;SDS011;55596;53.554;9.916;2023-04-03T14:45:16;3.30;;;1.30;;
17796;SDS011;55596;53.554;9.916;2023-04-03T14:47:45;2.15;;;1.05;;
17796;SDS011;55596;53.554;9.916;2023-04-03T14:50:13;2.00;;;1.20;;
17796;SDS011;55596;53.554;9.916;2023-04-03T14:52:41;2.67;;;1.48;;
17796;SDS011;55596;53.554;9.916;2023-04-03T14:55:08;2.60;;;1.30;;
17796;SDS011;55596;53.554;9.916;2023-04-03T14:57:35;3.88;;;1.30;;
17796;SDS011;55596;53.554;9.916;2023-04-03T15:00:07;3.30;;;1.20;;
17796;SDS011;55596;53.554;9.916;2023-04-03T15:02:35;2.22;;;1.23;;
17796;SDS011;55596;53.554;9.916;2023-04-03T15:05:04;3.50;;;1.38;;
17796;SDS011;55596;53.554;9.916;2023-04-03T15:07:32;1.48;;;1.00;;
17796;SDS011;55596;53.554;9.916;2023-04-03T15:10:01;2.95;;;1.40;;
17796;SDS011;55596;53.554;9.916;2023-04-03T15:12:28;5.28;;;1.40;;
17796;SDS011;55596;53.554;9.916;2023-04-03T15:14:55;3.40;;;1.45;;
17796;SDS011;55596;53.554;9.916;2023-04-03T15:17:22;1.83;;;1.10;;